Time;durP1;ratioP1;P1;durP2;ratioP2;P2;SDS_P1;SDS_P2;PMS_P1;PMS_P2;Temp;Humidity;BMP_temperature;BMP_pressure;BME280_temperature;BME280_humidity;BME280_pressure;Samples;Min_cycle;Max_cycle;Signal;HPM_P1;HPM_P2
2022/09/25 00:01:14;;;;;;;1.33;0.70;;;;;;;8.51;76.54;98043.69;4898324;29;20052;-82
2022/09/25 00:03:40;;;;;;;1.00;0.60;;;;;;;8.50;76.02;98052.38;4897917;29;20088;-83
2022/09/25 00:06:15;;;;;;;0.50;0.50;;;;;;;8.18;76.50;97999.66;4904254;29;20064;-81
2022/09/25 00:08:46;;;;;;;0.60;0.50;;;;;;;8.17;76.67;98000.53;4900213;29;20072;-82
2022/09/25 00:11:18;;;;;;;4.13;0.70;;;;;;;8.33;76.30;98023.44;4876450;29;20119;-82
2022/09/25 00:13:50;;;;;;;0.47;0.47;;;;;;;8.55;76.54;98067.78;4909107;29;20052;-85
2022/09/25 00:16:24;;;;;;;0.45;0.30;;;;;;;8.52;76.31;98067.84;4891610;29;20051;-82
2022/09/25 00:21:39;;;;;;;0.73;0.50;;;;;;;7.99;76.67;98002.75;4911449;29;20048;-83
2022/09/25 00:24:10;;;;;;;0.80;0.40;;;;;;;8.16;76.26;98029.09;4879254;29;20064;-82
2022/09/25 00:26:40;;;;;;;0.80;0.40;;;;;;;8.11;76.66;98027.47;4896296;29;20096;-83
2022/09/25 00:29:07;;;;;;;0.60;0.40;;;;;;;7.97;76.45;98006.28;4898601;29;20119;-83
2022/09/25 00:31:34;;;;;;;0.57;0.43;;;;;;;8.08;76.64;98026.72;4892723;29;20049;-83
2022/09/25 00:34:02;;;;;;;1.40;1.00;;;;;;;7.98;76.38;98020.94;4897015;29;20045;-80
2022/09/25 00:36:29;;;;;;;0.70;0.43;;;;;;;8.08;76.47;98037.91;4895176;29;20605;-82
2022/09/25 00:38:55;;;;;;;0.30;0.30;;;;;;;8.03;76.37;98034.63;4896613;29;20048;-82
2022/09/25 00:41:23;;;;;;;0.45;0.40;;;;;;;7.96;76.17;98058.97;4905572;29;20040;-83
2022/09/25 00:43:55;;;;;;;0.52;0.40;;;;;;;8.08;76.75;98079.34;4907753;29;20139;-84
2022/09/25 00:46:41;;;;;;;0.60;0.43;;;;;;;8.07;76.99;98085.44;4894111;29;20996;-83
2022/09/25 00:49:14;;;;;;;2.97;0.45;;;;;;;7.84;76.70;98048.03;4902906;29;20045;-81
2022/09/25 00:51:49;;;;;;;0.55;0.40;;;;;;;7.66;76.80;98044.19;4904689;29;20795;-81
2022/09/25 00:54:18;;;;;;;0.80;0.40;;;;;;;7.62;76.66;98039.97;4902768;29;20070;-83
2022/09/25 00:56:47;;;;;;;0.47;0.40;;;;;;;7.89;77.05;98089.38;4913332;29;20063;-83
2022/09/25 00:59:18;;;;;;;0.55;0.50;;;;;;;7.79;77.04;98068.03;4881895;29;20104;-83
2022/09/25 01:01:45;;;;;;;2.15;0.40;;;;;;;7.71;77.01;98069.13;4878926;29;20048;-82
2022/09/25 01:04:13;;;;;;;0.43;0.43;;;;;;;7.52;76.91;98047.13;4893361;29;20041;-83
2022/09/25 01:06:40;;;;;;;0.50;0.50;;;;;;;7.74;77.06;98090.59;4895397;29;20061;-84
2022/09/25 01:09:06;;;;;;;0.45;0.40;;;;;;;7.44;76.91;98054.19;4865689;29;20084;-84
2022/09/25 01:11:33;;;;;;;0.80;0.50;;;;;;;7.73;77.38;98088.88;4891426;29;20077;-84
2022/09/25 01:14:02;;;;;;;0.70;0.50;;;;;;;7.44;77.27;98055.94;4894575;29;20096;-81
2022/09/25 01:16:50;;;;;;;0.50;0.50;;;;;;;7.44;77.83;98061.13;4894387;29;20505;-84
2022/09/25 01:19:37;;;;;;;0.73;0.40;;;;;;;7.68;77.61;98101.97;4901148;29;20088;-81
2022/09/25 01:22:38;;;;;;;0.57;0.40;;;;;;;7.71;77.60;98106.19;4910539;29;20144;-83
2022/09/25 01:25:04;;;;;;;0.50;0.35;;;;;;;7.71;77.89;98100.19;4887643;29;20052;-80
2022/09/25 01:27:50;;;;;;;0.30;0.30;;;;;;;7.33;77.61;98053.63;4895426;29;20373;-82
2022/09/25 01:30:19;;;;;;;0.30;0.30;;;;;;;7.30;77.35;98053.69;4907671;29;20219;-82
2022/09/25 01:32:57;;;;;;;0.45;0.30;;;;;;;7.59;77.82;98106.50;4877035;29;20043;-82
2022/09/25 01:35:28;;;;;;;0.73;0.20;;;;;;;7.60;78.01;98105.63;4893532;29;20094;-83
2022/09/25 01:38:04;;;;;;;0.38;0.30;;;;;;;7.59;77.90;98112.53;4895948;29;20124;-82
2022/09/25 01:40:52;;;;;;;1.00;0.35;;;;;;;7.62;78.03;98107.28;4893535;29;20041;-81
2022/09/25 01:43:35;;;;;;;0.85;0.60;;;;;;;7.61;78.51;98095.22;4891773;29;20067;-82
2022/09/25 01:46:08;;;;;;;0.40;0.30;;;;;;;7.71;77.80;98105.38;4894544;29;20116;-81
2022/09/25 01:48:37;;;;;;;0.22;0.22;;;;;;;7.34;77.65;98050.16;4895091;29;20064;-81
2022/09/25 01:51:20;;;;;;;1.80;0.30;;;;;;;7.58;78.32;98084.09;4906715;29;20064;-83
2022/09/25 01:54:01;;;;;;;0.40;0.30;;;;;;;7.35;77.83;98057.84;4894462;29;20032;-82
2022/09/25 01:56:32;;;;;;;0.20;0.20;;;;;;;7.65;78.36;98111.50;4894097;29;20133;-81
2022/09/25 01:59:13;;;;;;;0.20;0.20;;;;;;;7.76;77.93;98130.25;4877188;29;20040;-82
2022/09/25 02:01:43;;;;;;;0.38;0.30;;;;;;;7.68;77.81;98121.81;4878035;29;20049;-82
2022/09/25 02:04:42;;;;;;;0.20;0.20;;;;;;;7.52;78.10;98098.88;4879283;29;20041;-82
2022/09/25 02:07:20;;;;;;;1.25;0.30;;;;;;;7.62;77.60;98134.88;4897504;29;20056;-85
2022/09/25 02:09:57;;;;;;;0.20;0.20;;;;;;;7.55;78.25;98131.59;4915245;29;20454;-81
2022/09/25 02:12:36;;;;;;;0.25;0.25;;;;;;;7.46;78.23;98116.28;4881717;29;20064;-81
2022/09/25 02:15:24;;;;;;;0.20;0.20;;;;;;;7.19;78.01;98088.41;4868646;29;20068;-85
2022/09/25 02:21:11;;;;;;;0.47;0.30;;;;;;;7.28;78.61;98079.59;4901444;29;20457;-81
2022/09/25 02:24:13;;;;;;;0.40;0.30;;;;;;;7.36;78.27;98095.78;4907347;29;20104;-81
2022/09/25 02:26:40;;;;;;;0.30;0.30;;;;;;;7.66;78.62;98149.47;4914649;29;20036;-82
2022/09/25 02:29:07;;;;;;;0.32;0.32;;;;;;;7.38;78.65;98085.41;4908907;29;20065;-82
2022/09/25 02:31:39;;;;;;;0.60;0.40;;;;;;;7.27;78.40;98070.16;4897975;29;20052;-83
2022/09/25 02:34:05;;;;;;;0.57;0.38;;;;;;;7.55;78.05;98116.06;4894087;29;20044;-81
2022/09/25 02:36:32;;;;;;;0.30;0.30;;;;;;;7.77;78.23;98141.44;4878214;29;20052;-82
2022/09/25 02:39:03;;;;;;;2.03;0.52;;;;;;;7.57;78.43;98108.28;4894544;29;20049;-81
2022/09/25 02:42:12;;;;;;;0.60;0.50;;;;;;;7.83;78.49;98142.13;4873260;29;20486;-85
2022/09/25 02:45:02;;;;;;;0.40;0.40;;;;;;;7.52;78.09;98117.00;4863973;29;20132;-80
2022/09/25 02:47:34;;;;;;;0.60;0.40;;;;;;;7.61;77.59;98146.16;4898513;29;20423;-82
2022/09/25 02:50:25;;;;;;;0.40;0.40;;;;;;;7.54;78.47;98145.41;4876770;29;20585;-83
2022/09/25 02:53:05;;;;;;;0.60;0.50;;;;;;;7.27;78.18;98100.31;4893121;29;20144;-82
2022/09/25 02:55:40;;;;;;;0.73;0.65;;;;;;;7.43;78.10;98126.72;4887991;29;20044;-80
2022/09/25 02:58:16;;;;;;;0.80;0.50;;;;;;;7.35;78.32;98124.31;4894817;29;20048;-79
2022/09/25 03:00:46;;;;;;;0.30;0.30;;;;;;;7.46;78.03;98158.53;4886030;29;20048;-82
2022/09/25 03:03:16;;;;;;;1.30;0.45;;;;;;;7.08;78.29;98095.56;4906375;29;20047;-82
2022/09/25 03:05:43;;;;;;;0.50;0.40;;;;;;;7.29;78.51;98125.28;4876316;29;20068;-80
2022/09/25 03:10:54;;;;;;;0.40;0.40;;;;;;;7.51;78.52;98163.59;4893932;29;20051;-81
2022/09/25 03:13:30;;;;;;;0.40;0.40;;;;;;;7.42;78.48;98150.88;4896122;29;20382;-84
2022/09/25 03:16:02;;;;;;;0.40;0.40;;;;;;;7.44;78.11;98178.44;4894156;29;20075;-82
2022/09/25 03:18:30;;;;;;;0.50;0.40;;;;;;;7.27;78.27;98168.47;4895774;29;20111;-80
2022/09/25 03:20:57;;;;;;;0.65;0.50;;;;;;;6.95;78.18;98136.34;4896451;29;20049;-83
2022/09/25 03:23:23;;;;;;;2.10;0.57;;;;;;;7.24;78.72;98177.13;4901393;29;20071;-83
2022/09/25 03:25:53;;;;;;;0.80;0.45;;;;;;;7.23;78.99;98174.59;4877238;29;20049;-84
2022/09/25 03:28:20;;;;;;;2.28;0.60;;;;;;;7.22;79.11;98165.94;4900921;29;20118;-81
2022/09/25 03:31:04;;;;;;;0.80;0.50;;;;;;;7.31;78.27;98182.19;4894622;29;20055;-83
2022/09/25 03:33:40;;;;;;;0.50;0.50;;;;;;;7.32;78.81;98184.72;4891843;29;20464;-84
2022/09/25 03:36:25;;;;;;;1.15;0.77;;;;;;;7.28;77.97;98190.00;4895354;29;20040;-83
2022/09/25 03:38:56;;;;;;;0.60;0.43;;;;;;;6.92;78.43;98145.03;4894956;29;20151;-83
2022/09/25 03:41:23;;;;;;;0.60;0.57;;;;;;;6.97;78.91;98154.41;4894724;29;20095;-86
2022/09/25 03:43:52;;;;;;;1.00;0.70;;;;;;;6.95;78.62;98163.97;4874335;29;20052;-83
2022/09/25 03:46:22;;;;;;;1.52;1.15;;;;;;;7.01;78.66;98161.22;4898053;29;20044;-83
2022/09/25 03:48:48;;;;;;;0.50;0.50;;;;;;;7.02;79.00;98179.31;4898476;29;20796;-83
2022/09/25 03:51:14;;;;;;;0.50;0.50;;;;;;;7.02;79.27;98178.44;4882051;29;20040;-85
2022/09/25 03:53:40;;;;;;;0.60;0.50;;;;;;;7.16;78.90;98197.16;4903252;29;20071;-82
2022/09/25 03:56:09;;;;;;;2.60;0.70;;;;;;;7.18;78.89;98197.94;4903357;29;20500;-83
2022/09/25 03:58:36;;;;;;;0.70;0.68;;;;;;;7.07;78.92;98174.88;4901693;29;20627;-83
2022/09/25 04:01:02;;;;;;;0.40;0.40;;;;;;;7.02;78.74;98163.81;4903138;29;20109;-82
2022/09/25 04:03:31;;;;;;;0.52;0.40;;;;;;;6.99;78.63;98152.66;4904819;29;20052;-84
2022/09/25 04:06:00;;;;;;;0.30;0.30;;;;;;;6.93;77.91;98164.84;4922379;29;20064;-84
2022/09/25 04:08:27;;;;;;;0.45;0.40;;;;;;;6.91;78.33;98165.75;4903579;29;20045;-85
2022/09/25 04:11:00;;;;;;;0.50;0.43;;;;;;;7.15;78.32;98210.97;4880835;29;20607;-82
2022/09/25 04:13:31;;;;;;;0.65;0.40;;;;;;;6.87;78.56;98174.44;4886133;29;20048;-85
2022/09/25 04:16:07;;;;;;;0.22;0.22;;;;;;;7.18;78.79;98213.47;4882554;29;20049;-83
2022/09/25 04:18:33;;;;;;;0.30;0.30;;;;;;;7.09;79.19;98196.41;4905895;29;20052;-82
2022/09/25 04:21:00;;;;;;;0.20;0.20;;;;;;;7.24;78.56;98228.03;4907981;29;20047;-86
2022/09/25 04:23:32;;;;;;;1.08;0.50;;;;;;;6.75;79.13;98137.63;4885854;29;20053;-84
2022/09/25 04:25:58;;;;;;;0.82;0.38;;;;;;;7.13;79.44;98162.72;4887719;29;20040;-82
2022/09/25 04:28:25;;;;;;;0.80;0.40;;;;;;;7.75;79.60;98233.84;4899204;29;20049;-85
2022/09/25 04:30:52;;;;;;;0.75;0.45;;;;;;;7.72;78.65;98231.34;4902453;29;20139;-84
2022/09/25 04:36:06;;;;;;;0.70;0.60;;;;;;;7.39;79.10;98169.94;4912183;29;20044;-86
2022/09/25 04:38:33;;;;;;;0.90;0.80;;;;;;;7.44;78.20;98198.28;4881452;29;20036;-86
2022/09/25 04:41:00;;;;;;;1.20;0.93;;;;;;;7.49;78.32;98238.72;4891155;29;20100;-83
2022/09/25 04:43:31;;;;;;;0.85;0.70;;;;;;;7.53;79.08;98242.06;4893256;29;20044;-83
2022/09/25 04:46:06;;;;;;;0.80;0.73;;;;;;;7.31;78.81;98214.06;4894021;29;20517;-83
2022/09/25 04:48:33;;;;;;;0.50;0.47;;;;;;;7.45;78.78;98238.81;4876192;29;20139;-84
2022/09/25 04:50:59;;;;;;;1.10;0.80;;;;;;;7.19;78.26;98201.41;4903744;29;20043;-83
2022/09/25 04:53:28;;;;;;;0.63;0.60;;;;;;;7.34;79.03;98213.16;4902106;29;20063;-83
2022/09/25 04:56:03;;;;;;;0.50;0.47;;;;;;;7.52;78.57;98256.78;4899296;29;20067;-83
2022/09/25 04:58:29;;;;;;;0.70;0.55;;;;;;;7.44;78.90;98253.47;4894019;29;20135;-83
2022/09/25 05:00:55;;;;;;;0.70;0.60;;;;;;;7.11;78.48;98205.88;4901840;29;20044;-84
2022/09/25 05:03:21;;;;;;;0.73;0.55;;;;;;;7.14;78.16;98214.44;4888227;29;20123;-82
2022/09/25 05:05:48;;;;;;;0.38;0.35;;;;;;;7.06;78.76;98219.72;4894613;29;20103;-82
2022/09/25 05:08:14;;;;;;;0.70;0.50;;;;;;;7.35;78.93;98274.38;4888420;29;20053;-83
2022/09/25 05:10:43;;;;;;;1.27;1.08;;;;;;;6.90;78.99;98195.94;4894246;29;20044;-83
2022/09/25 05:13:10;;;;;;;0.60;0.50;;;;;;;7.04;78.67;98213.78;4893338;29;20151;-83
2022/09/25 05:15:45;;;;;;;0.55;0.47;;;;;;;7.26;78.73;98225.41;4892100;29;20393;-84
2022/09/25 05:18:16;;;;;;;1.15;1.05;;;;;;;7.48;78.59;98280.16;4879619;29;20048;-84
2022/09/25 05:20:42;;;;;;;2.87;0.47;;;;;;;7.32;78.48;98253.75;4880269;29;20147;-85
2022/09/25 05:23:08;;;;;;;0.40;0.40;;;;;;;7.43;78.89;98262.13;4876300;29;20052;-84
2022/09/25 05:25:34;;;;;;;0.73;0.60;;;;;;;7.29;78.62;98254.63;4893434;29;20103;-85
2022/09/25 05:28:01;;;;;;;0.45;0.45;;;;;;;7.22;78.23;98233.22;4894169;29;20040;-85
2022/09/25 05:30:31;;;;;;;1.50;0.60;;;;;;;7.36;78.67;98245.03;4897424;29;20116;-83
2022/09/25 05:32:58;;;;;;;0.50;0.50;;;;;;;7.72;78.95;98291.75;4899510;29;20051;-83
2022/09/25 05:35:26;;;;;;;0.50;0.50;;;;;;;7.65;78.70;98277.22;4882576;29;20393;-84
2022/09/25 05:37:52;;;;;;;0.70;0.57;;;;;;;7.49;78.45;98243.88;4893486;29;20052;-84
2022/09/25 05:40:20;;;;;;;0.65;0.43;;;;;;;7.71;78.70;98256.38;4880582;29;20052;-83
2022/09/25 05:42:50;;;;;;;0.40;0.40;;;;;;;7.60;78.10;98229.88;4874278;29;20052;-83
2022/09/25 05:45:18;;;;;;;0.57;0.57;;;;;;;7.68;78.02;98251.25;4890514;29;20051;-83
2022/09/25 05:47:44;;;;;;;1.52;0.65;;;;;;;7.99;78.40;98304.97;4894501;29;20036;-83
2022/09/25 05:50:15;;;;;;;0.70;0.57;;;;;;;7.91;77.65;98305.16;4893341;29;20044;-83
2022/09/25 05:52:41;;;;;;;0.50;0.40;;;;;;;7.67;78.23;98271.13;4897391;29;20123;-85
2022/09/25 05:55:10;;;;;;;3.72;0.98;;;;;;;7.69;77.19;98263.31;4892228;29;20599;-83
2022/09/25 05:57:37;;;;;;;1.10;0.80;;;;;;;7.87;77.30;98277.63;4901453;29;20041;-84
2022/09/25 06:00:07;;;;;;;1.10;0.75;;;;;;;7.97;76.88;98286.03;4908521;29;20052;-85
2022/09/25 06:02:43;;;;;;;1.00;0.88;;;;;;;7.97;77.91;98286.88;4910143;29;20045;-82
2022/09/25 06:05:12;;;;;;;1.15;0.85;;;;;;;8.19;78.43;98285.53;4911276;29;20051;-84
2022/09/25 06:07:39;;;;;;;1.60;1.35;;;;;;;7.84;77.54;98251.78;4887953;29;20073;-84
2022/09/25 06:10:05;;;;;;;1.77;1.60;;;;;;;8.21;77.73;98301.91;4894031;29;20083;-83
2022/09/25 06:12:37;;;;;;;1.65;1.05;;;;;;;8.46;77.41;98324.66;4891786;29;20486;-82
2022/09/25 06:15:06;;;;;;;0.70;0.60;;;;;;;8.20;77.45;98280.31;4878550;29;20053;-83
2022/09/25 06:17:35;;;;;;;0.60;0.55;;;;;;;8.56;77.25;98328.75;4883286;29;20109;-83
2022/09/25 06:20:04;;;;;;;1.25;0.90;;;;;;;8.19;76.58;98288.13;4893535;29;20040;-85
2022/09/25 06:22:39;;;;;;;0.90;0.70;;;;;;;7.91;76.55;98255.06;4860981;29;20143;-83
2022/09/25 06:25:06;;;;;;;0.82;0.40;;;;;;;8.01;76.11;98299.75;4907848;29;20076;-85
2022/09/25 06:27:33;;;;;;;0.52;0.52;;;;;;;7.74;76.47;98274.44;4891371;29;20044;-84
2022/09/25 06:33:14;;;;;;;1.73;0.68;;;;;;;7.83;76.39;98252.66;4869924;29;20504;-84
2022/09/25 06:35:48;;;;;;;2.58;1.73;;;;;;;7.66;76.23;98233.19;4897410;29;20049;-84
2022/09/25 06:38:23;;;;;;;1.90;0.90;;;;;;;8.23;76.06;98332.06;4887268;29;20044;-84
2022/09/25 06:40:51;;;;;;;0.52;0.50;;;;;;;7.97;75.23;98286.88;4898160;29;20068;-87
2022/09/25 06:43:30;;;;;;;0.82;0.65;;;;;;;8.12;76.07;98310.75;4873891;29;20068;-84
2022/09/25 06:46:01;;;;;;;0.50;0.47;;;;;;;8.28;75.87;98298.25;4895144;29;20040;-84
2022/09/25 06:48:36;;;;;;;0.70;0.70;;;;;;;8.36;75.27;98321.44;4895341;29;20516;-84
2022/09/25 06:51:17;;;;;;;0.93;0.75;;;;;;;8.17;75.40;98316.66;4872593;29;20418;-82
2022/09/25 06:53:46;;;;;;;1.65;1.27;;;;;;;8.31;75.79;98331.88;4900200;29;20044;-86
2022/09/25 06:56:20;;;;;;;1.00;0.90;;;;;;;8.31;74.43;98357.81;4866974;29;20135;-86
2022/09/25 06:58:55;;;;;;;1.73;1.30;;;;;;;8.46;75.59;98360.94;4863114;29;20077;-84
2022/09/25 07:05:17;;;;;;;1.25;0.80;;;;;;;8.41;75.42;98298.81;4881062;29;20071;-85
2022/09/25 07:07:54;;;;;;;2.08;1.10;;;;;;;8.46;74.70;98322.91;4888538;29;20053;-85
2022/09/25 07:10:26;;;;;;;1.30;1.17;;;;;;;8.79;75.27;98366.22;4897869;29;20048;-86
2022/09/25 07:13:42;;;;;;;1.30;1.20;;;;;;;8.60;75.50;98312.22;4886529;29;20092;-85
2022/09/25 07:16:21;;;;;;;2.45;1.30;;;;;;;8.97;75.23;98357.16;4878604;29;20197;-86
2022/09/25 07:18:49;;;;;;;1.65;1.20;;;;;;;9.10;74.96;98362.88;4880431;29;20505;-82
2022/09/25 07:21:29;;;;;;;2.47;0.93;;;;;;;8.76;73.31;98354.22;4887840;29;20473;-82
2022/09/25 07:23:57;;;;;;;4.13;1.60;;;;;;;8.20;73.06;98307.97;4899556;29;20519;-86
2022/09/25 07:26:38;;;;;;;2.40;2.20;;;;;;;8.25;74.26;98321.69;4897975;29;20051;-83
2022/09/25 07:29:09;;;;;;;2.75;2.38;;;;;;;8.30;74.08;98358.69;4881960;29;20100;-89
2022/09/25 07:31:49;;;;;;;2.13;1.60;;;;;;;8.07;74.52;98299.63;4886124;29;20076;-83
2022/09/25 07:34:41;;;;;;;;;;;;;;;;;;;;;
2022/09/25 07:37:45;;;;;;;1.52;1.10;;;;;;;8.47;74.29;98363.50;4893406;29;20488;-82
2022/09/25 07:40:22;;;;;;;1.63;1.50;;;;;;;8.35;74.30;98335.28;4894551;29;20072;-82
2022/09/25 07:43:20;;;;;;;1.70;1.20;;;;;;;8.34;73.59;98357.72;4904804;29;20044;-82
2022/09/25 07:46:33;;;;;;;2.10;1.30;;;;;;;8.39;73.37;98399.09;4889139;29;20044;-86
2022/09/25 07:49:24;;;;;;;1.48;1.00;;;;;;;8.14;74.04;98379.75;4880294;29;20045;-84
2022/09/25 07:51:51;;;;;;;1.15;1.05;;;;;;;8.35;74.49;98411.28;4896763;29;20052;-84
2022/09/25 07:54:17;;;;;;;1.00;0.95;;;;;;;8.37;74.86;98386.19;4891552;29;20036;-79
2022/09/25 07:56:56;;;;;;;2.03;1.63;;;;;;;8.30;73.85;98371.66;4881692;29;20404;-82
2022/09/25 07:59:22;;;;;;;2.90;1.90;;;;;;;8.74;73.84;98428.59;4895114;29;20127;-80
2022/09/25 08:02:02;;;;;;;2.65;1.98;;;;;;;8.55;74.46;98384.09;4895234;29;21047;-81
2022/09/25 08:04:38;;;;;;;3.15;2.35;;;;;;;8.78;74.30;98401.72;4891061;29;20048;-80
2022/09/25 08:07:13;;;;;;;3.92;2.55;;;;;;;8.52;74.23;98335.75;4877181;29;20151;-81
2022/09/25 08:09:44;;;;;;;2.08;1.67;;;;;;;9.19;73.88;98440.50;4893187;29;20140;-80
2022/09/25 08:12:28;;;;;;;4.50;2.00;;;;;;;9.34;73.35;98445.31;4881290;29;20531;-80
2022/09/25 08:14:57;;;;;;;2.72;1.30;;;;;;;8.72;72.95;98350.81;4859497;29;20051;-82
2022/09/25 08:17:26;;;;;;;1.02;0.75;;;;;;;9.00;73.00;98398.59;4879658;29;20044;-80
2022/09/25 08:19:55;;;;;;;1.90;1.17;;;;;;;9.41;73.03;98452.94;4883787;29;20045;-80
2022/09/25 08:22:24;;;;;;;1.70;1.10;;;;;;;9.62;72.70;98446.34;4889468;29;20052;-83
2022/09/25 08:24:50;;;;;;;1.00;0.82;;;;;;;9.78;73.10;98444.19;4875764;29;20041;-79
2022/09/25 08:27:16;;;;;;;1.52;1.02;;;;;;;10.05;73.00;98439.97;4897291;29;20052;-80
2022/09/25 08:29:46;;;;;;;1.05;0.95;;;;;;;10.04;71.35;98435.66;4885206;29;20056;-81
2022/09/25 08:32:41;;;;;;;1.30;1.00;;;;;;;10.16;70.97;98463.03;4896725;29;20064;-82
2022/09/25 08:35:15;;;;;;;2.10;1.33;;;;;;;9.97;72.02;98413.31;4910728;29;20071;-83
2022/09/25 08:38:13;;;;;;;1.40;0.98;;;;;;;10.52;70.49;98488.91;4896673;29;20048;-80
2022/09/25 08:41:02;;;;;;;1.88;1.00;;;;;;;10.59;70.78;98471.38;4884037;29;20044;-83
2022/09/25 08:43:34;;;;;;;0.98;0.82;;;;;;;10.60;69.52;98454.84;4881234;29;20498;-81
2022/09/25 08:49:25;;;;;;;1.67;1.05;;;;;;;10.33;69.93;98435.69;4898352;29;20040;-84
2022/09/25 08:52:13;;;;;;;2.55;1.40;;;;;;;10.36;68.84;98446.00;4879604;29;20088;-84
2022/09/25 08:54:39;;;;;;;2.95;2.13;;;;;;;10.29;68.98;98449.69;4883394;29;20088;-84
2022/09/25 08:57:36;;;;;;;2.97;2.13;;;;;;;10.63;68.68;98493.78;4883526;29;20040;-85
2022/09/25 09:00:16;;;;;;;3.92;2.88;;;;;;;10.43;69.03;98468.38;4899671;29;20041;-86
2022/09/25 09:02:53;;;;;;;6.55;4.00;;;;;;;10.12;68.75;98425.03;4883323;29;20050;-84
2022/09/25 09:05:27;;;;;;;9.40;5.70;;;;;;;10.48;67.04;98502.88;4899250;29;20076;-82
2022/09/25 09:08:02;;;;;;;9.82;6.63;;;;;;;10.16;68.12;98520.22;4895605;29;20049;-80
2022/09/25 09:10:34;;;;;;;8.13;5.50;;;;;;;10.04;67.93;98500.63;4896364;29;20049;-84
2022/09/25 09:13:24;;;;;;;8.20;5.93;;;;;;;10.13;67.85;98506.47;4906449;29;20036;-82
2022/09/25 09:16:08;;;;;;;9.63;6.35;;;;;;;10.17;68.06;98524.53;4900128;29;20084;-87
2022/09/25 09:18:40;;;;;;;9.10;6.35;;;;;;;10.18;68.75;98479.44;4905031;29;20044;-86
2022/09/25 09:21:12;;;;;;;8.48;5.95;;;;;;;10.65;68.03;98523.19;4893416;29;20048;-83
2022/09/25 09:24:05;;;;;;;8.18;5.38;;;;;;;10.90;67.86;98516.44;4896568;29;20041;-82
2022/09/25 09:27:07;;;;;;;6.32;4.82;;;;;;;11.06;66.77;98503.75;4885912;29;20055;-84
2022/09/25 09:30:10;;;;;;;5.88;4.22;;;;;;;11.44;67.12;98523.38;4906005;29;20192;-81
2022/09/25 09:32:55;;;;;;;7.50;4.50;;;;;;;11.46;66.45;98502.50;4868481;29;20048;-83
2022/09/25 09:35:29;;;;;;;6.97;4.35;;;;;;;11.85;65.98;98530.72;4911050;29;20064;-82
2022/09/25 09:38:23;;;;;;;6.40;4.68;;;;;;;11.93;65.56;98530.44;4893537;29;20052;-80
2022/09/25 09:41:07;;;;;;;6.65;3.88;;;;;;;11.79;65.20;98498.81;4919065;29;20108;-82
2022/09/25 09:43:49;;;;;;;8.38;3.88;;;;;;;12.19;64.91;98532.16;4880388;29;20076;-81
2022/09/25 09:46:42;;;;;;;5.40;3.58;;;;;;;12.39;64.22;98532.34;4906892;29;20050;-84
2022/09/25 09:49:51;;;;;;;5.38;3.17;;;;;;;12.70;63.85;98531.19;4853552;29;20067;-86
2022/09/25 09:52:25;;;;;;;5.05;2.90;;;;;;;12.62;62.57;98508.00;4895980;29;20099;-84
2022/09/25 09:55:21;;;;;;;4.03;2.90;;;;;;;12.75;62.42;98518.84;4902259;29;20052;-85
2022/09/25 09:57:56;;;;;;;3.42;2.47;;;;;;;12.79;62.10;98543.91;4897829;29;20071;-82
2022/09/25 10:00:23;;;;;;;3.83;2.55;;;;;;;12.34;62.29;98489.03;4898833;29;20417;-82
2022/09/25 10:02:58;;;;;;;3.97;2.40;;;;;;;12.50;61.61;98546.72;4886733;29;20055;-81
2022/09/25 10:05:47;;;;;;;5.80;2.40;;;;;;;12.19;61.03;98550.41;4880156;29;20049;-83
2022/09/25 10:08:14;;;;;;;3.58;2.30;;;;;;;12.01;61.38;98549.31;4893455;29;20131;-82
2022/09/25 10:10:54;;;;;;;3.28;2.45;;;;;;;11.99;61.84;98551.13;4882981;29;20052;-82
2022/09/25 10:13:31;;;;;;;2.42;2.08;;;;;;;11.81;60.68;98549.97;4884565;29;20076;-83
2022/09/25 10:16:20;;;;;;;1.52;1.23;;;;;;;11.48;62.07;98546.72;4879297;29;20099;-87
2022/09/25 10:18:52;;;;;;;1.58;1.30;;;;;;;11.49;61.81;98566.66;4894449;29;20060;-83
2022/09/25 10:21:21;;;;;;;1.98;1.52;;;;;;;11.27;61.83;98551.72;4880151;29;20048;-80
2022/09/25 10:23:57;;;;;;;2.20;1.90;;;;;;;11.15;61.96;98550.34;4896389;29;20175;-83
2022/09/25 10:26:27;;;;;;;1.50;1.40;;;;;;;11.21;62.79;98562.31;4889876;29;20045;-81
2022/09/25 10:28:56;;;;;;;1.75;1.40;;;;;;;11.20;62.66;98561.47;4883981;29;20040;-81
2022/09/25 10:31:28;;;;;;;1.60;1.42;;;;;;;11.12;62.60;98545.22;4886344;29;20066;-81
2022/09/25 10:34:15;;;;;;;1.70;1.38;;;;;;;11.23;62.08;98571.81;4867457;29;20041;-78
2022/09/25 10:36:46;;;;;;;3.83;2.55;;;;;;;10.82;62.36;98543.53;4910226;29;20052;-82
2022/09/25 10:39:30;;;;;;;3.22;2.00;;;;;;;10.83;62.49;98592.06;4888479;29;20069;-79
2022/09/25 10:41:59;;;;;;;2.72;1.70;;;;;;;10.74;62.85;98563.69;4880176;29;20056;-81
2022/09/25 10:44:34;;;;;;;2.30;1.67;;;;;;;10.90;62.97;98578.88;4910808;29;20845;-79
2022/09/25 10:50:24;;;;;;;3.58;2.30;;;;;;;11.19;62.94;98591.03;4902774;29;20052;-79
2022/09/25 10:52:57;;;;;;;3.50;2.63;;;;;;;11.14;63.22;98588.53;4893766;29;20049;-82
2022/09/25 10:55:29;;;;;;;3.63;2.53;;;;;;;11.30;62.99;98588.09;4891933;29;20089;-77
2022/09/25 10:58:08;;;;;;;2.20;2.00;;;;;;;11.21;63.21;98557.97;4894687;29;20457;-81
2022/09/25 11:00:39;;;;;;;2.00;1.80;;;;;;;11.48;62.67;98591.84;4923196;29;20062;-80
2022/09/25 11:03:06;;;;;;;2.58;1.77;;;;;;;11.49;62.60;98582.28;4901720;29;20413;-82
2022/09/25 11:05:35;;;;;;;1.83;1.58;;;;;;;11.28;61.71;98537.81;4902292;29;20124;-83
2022/09/25 11:08:06;;;;;;;2.03;1.70;;;;;;;11.33;61.86;98597.53;4884684;29;20143;-80
2022/09/25 11:10:43;;;;;;;2.78;1.50;;;;;;;11.29;62.91;98582.00;4881888;29;20186;-82
2022/09/25 11:13:25;;;;;;;2.58;1.60;;;;;;;11.43;62.77;98592.00;4867931;29;20045;-80
2022/09/25 11:15:56;;;;;;;2.33;1.55;;;;;;;11.45;62.32;98602.38;4876299;29;20517;-79
2022/09/25 11:18:43;;;;;;;2.53;1.55;;;;;;;11.10;62.21;98591.28;4896215;29;20055;-79
2022/09/25 11:21:31;;;;;;;1.40;1.20;;;;;;;11.22;62.66;98608.28;4882549;29;20045;-79
2022/09/25 11:24:12;;;;;;;1.88;1.30;;;;;;;11.29;62.30;98604.59;4882173;29;20041;-81
2022/09/25 11:27:02;;;;;;;2.05;1.67;;;;;;;11.36;62.76;98603.53;4891077;29;20469;-80
2022/09/25 11:29:47;;;;;;;1.60;1.40;;;;;;;11.17;62.35;98565.91;4902106;29;20072;-79
2022/09/25 11:32:32;;;;;;;5.72;2.10;;;;;;;11.43;62.29;98614.59;4894674;29;20113;-82
2022/09/25 11:35:37;;;;;;;1.88;1.58;;;;;;;11.19;61.40;98583.22;4901437;29;20055;-80
2022/09/25 11:38:09;;;;;;;2.38;1.45;;;;;;;11.21;61.92;98617.88;4893372;29;20504;-79
2022/09/25 11:41:11;;;;;;;2.35;1.50;;;;;;;10.94;62.09;98585.69;4869216;29;20045;-83
2022/09/25 11:43:48;;;;;;;2.13;1.50;;;;;;;11.18;62.09;98624.91;4881777;29;20044;-81
2022/09/25 11:46:46;;;;;;;2.60;1.77;;;;;;;11.17;62.60;98628.41;4910748;29;20057;-82
2022/09/25 11:49:23;;;;;;;2.58;1.80;;;;;;;11.13;61.80;98630.25;4884108;29;20033;-84
2022/09/25 11:52:27;;;;;;;2.70;1.77;;;;;;;11.14;62.61;98637.16;4897175;29;20045;-82
2022/09/25 11:55:04;;;;;;;2.22;1.90;;;;;;;10.99;62.74;98610.69;4895226;29;20037;-81
2022/09/25 11:57:30;;;;;;;2.78;1.63;;;;;;;11.19;62.67;98635.28;4906254;29;20048;-82
2022/09/25 12:00:13;;;;;;;2.17;1.52;;;;;;;11.17;62.99;98631.88;4895397;29;20059;-83
2022/09/25 12:02:49;;;;;;;3.65;1.90;;;;;;;11.17;62.72;98646.63;4901292;29;20045;-83
2022/09/25 12:05:35;;;;;;;2.30;1.70;;;;;;;11.19;62.92;98647.44;4875997;29;20055;-82
2022/09/25 12:08:16;;;;;;;2.40;1.73;;;;;;;11.15;62.72;98647.53;4892353;29;20056;-82
2022/09/25 12:10:53;;;;;;;3.70;2.20;;;;;;;11.18;63.03;98649.19;4884290;29;20577;-81
2022/09/25 12:13:43;;;;;;;2.85;1.98;;;;;;;11.16;62.41;98653.59;4896730;29;20281;-80
2022/09/25 12:16:45;;;;;;;7.07;4.30;;;;;;;10.80;62.68;98638.16;4892934;29;20104;-80
2022/09/25 12:19:22;;;;;;;5.78;4.43;;;;;;;10.83;62.53;98661.47;4882382;29;20045;-82
2022/09/25 12:21:59;;;;;;;6.88;4.72;;;;;;;10.82;63.11;98663.22;4892937;29;20049;-82
2022/09/25 12:24:54;;;;;;;5.75;3.90;;;;;;;10.92;63.39;98658.63;4881416;29;20049;-80
2022/09/25 12:27:40;;;;;;;6.50;4.05;;;;;;;11.00;63.02;98663.59;4902211;29;20055;-79
2022/09/25 12:30:19;;;;;;;6.40;3.58;;;;;;;11.05;63.34;98672.13;4897816;29;20460;-79
2022/09/25 12:33:22;;;;;;;5.28;4.07;;;;;;;11.14;63.24;98661.44;4874119;29;20053;-81
2022/09/25 12:36:07;;;;;;;6.32;4.55;;;;;;;11.15;62.52;98655.31;4907264;29;20131;-81
2022/09/25 12:38:55;;;;;;;4.70;3.63;;;;;;;11.28;62.80;98673.22;4896443;29;20056;-79
2022/09/25 12:41:42;;;;;;;8.05;4.20;;;;;;;11.21;62.50;98664.72;4884073;29;20049;-79
2022/09/25 12:44:20;;;;;;;8.60;4.13;;;;;;;11.35;62.64;98674.75;4893657;29;20040;-77
2022/09/25 12:47:04;;;;;;;6.60;4.28;;;;;;;11.42;62.52;98670.19;4892370;29;20040;-80